sensor_id;sensor_type;location;lat;lon;timestamp;P1;durP1;ratioP1;P2;durP2;ratioP2
77457;SDS011;66541;49.346;8.648;2023-02-03T00:00:17;6.45;;;0.80;;
77457;SDS011;66541;49.346;8.648;2023-02-03T00:02:43;5.55;;;0.80;;
77457;SDS011;66541;49.346;8.648;2023-02-03T00:05:08;5.40;;;0.93;;
77457;SDS011;66541;49.346;8.648;2023-02-03T00:07:33;7.53;;;0.95;;
77457;SDS011;66541;49.346;8.648;2023-02-03T00:10:01;6.95;;;0.82;;
77457;SDS011;66541;49.346;8.648;2023-02-03T00:12:26;8.23;;;1.10;;
77457;SDS011;66541;49.346;8.648;2023-02-03T00:14:52;6.60;;;1.10;;
77457;SDS011;66541;49.346;8.648;2023-02-03T00:17:17;9.93;;;0.88;;
77457;SDS011;66541;49.346;8.648;2023-02-03T00:19:43;5.03;;;0.73;;
77457;SDS011;66541;49.346;8.648;2023-02-03T00:22:08;5.00;;;1.13;;
77457;SDS011;66541;49.346;8.648;2023-02-03T00:24:33;8.40;;;1.10;;
77457;SDS011;66541;49.346;8.648;2023-02-03T00:26:59;6.95;;;1.10;;
77457;SDS011;66541;49.346;8.648;2023-02-03T00:29:24;7.38;;;1.77;;
77457;SDS011;66541;49.346;8.648;2023-02-03T00:31:50;7.28;;;1.20;;
77457;SDS011;66541;49.346;8.648;2023-02-03T00:34:16;6.32;;;0.90;;
77457;SDS011;66541;49.346;8.648;2023-02-03T00:36:42;7.75;;;0.98;;
77457;SDS011;66541;49.346;8.648;2023-02-03T00:39:07;5.95;;;1.10;;
77457;SDS011;66541;49.346;8.648;2023-02-03T00:41:32;7.50;;;1.55;;
77457;SDS011;66541;49.346;8.648;2023-02-03T00:43:58;8.70;;;1.10;;
77457;SDS011;66541;49.346;8.648;2023-02-03T00:46:23;11.75;;;2.10;;
77457;SDS011;66541;49.346;8.648;2023-02-03T00:48:48;6.78;;;1.35;;
77457;SDS011;66541;49.346;8.648;2023-02-03T00:51:14;6.10;;;0.98;;
77457;SDS011;66541;49.346;8.648;2023-02-03T00:53:39;10.23;;;1.50;;
77457;SDS011;66541;49.346;8.648;2023-02-03T00:56:04;7.25;;;1.90;;
77457;SDS011;66541;49.346;8.648;2023-02-03T00:58:36;5.25;;;0.90;;
77457;SDS011;66541;49.346;8.648;2023-02-03T01:01:02;3.72;;;0.82;;
77457;SDS011;66541;49.346;8.648;2023-02-03T01:03:27;5.95;;;1.42;;
77457;SDS011;66541;49.346;8.648;2023-02-03T01:05:53;6.93;;;1.17;;
77457;SDS011;66541;49.346;8.648;2023-02-03T01:08:18;7.25;;;1.10;;
77457;SDS011;66541;49.346;8.648;2023-02-03T01:10:43;8.68;;;1.20;;
77457;SDS011;66541;49.346;8.648;2023-02-03T01:13:09;8.52;;;1.35;;
77457;SDS011;66541;49.346;8.648;2023-02-03T01:15:34;6.05;;;1.33;;
77457;SDS011;66541;49.346;8.648;2023-02-03T01:17:59;6.78;;;1.15;;
77457;SDS011;66541;49.346;8.648;2023-02-03T01:20:25;5.05;;;0.73;;
77457;SDS011;66541;49.346;8.648;2023-02-03T01:22:50;4.95;;;0.98;;
77457;SDS011;66541;49.346;8.648;2023-02-03T01:25:15;5.40;;;1.00;;
77457;SDS011;66541;49.346;8.648;2023-02-03T01:27:41;5.07;;;0.80;;
77457;SDS011;66541;49.346;8.648;2023-02-03T01:30:06;6.50;;;1.00;;
77457;SDS011;66541;49.346;8.648;2023-02-03T01:32:32;7.45;;;0.85;;
77457;SDS011;66541;49.346;8.648;2023-02-03T01:34:57;6.25;;;0.82;;
77457;SDS011;66541;49.346;8.648;2023-02-03T01:37:22;5.18;;;0.95;;
77457;SDS011;66541;49.346;8.648;2023-02-03T01:39:48;5.68;;;1.02;;
77457;SDS011;66541;49.346;8.648;2023-02-03T01:42:13;4.93;;;1.00;;
77457;SDS011;66541;49.346;8.648;2023-02-03T01:44:40;4.63;;;0.77;;
77457;SDS011;66541;49.346;8.648;2023-02-03T01:49:52;5.75;;;0.85;;
77457;SDS011;66541;49.346;8.648;2023-02-03T01:52:20;4.18;;;0.98;;
77457;SDS011;66541;49.346;8.648;2023-02-03T01:54:45;5.40;;;0.95;;
77457;SDS011;66541;49.346;8.648;2023-02-03T01:57:14;8.05;;;1.20;;
77457;SDS011;66541;49.346;8.648;2023-02-03T01:59:43;2.95;;;0.57;;
77457;SDS011;66541;49.346;8.648;2023-02-03T02:02:08;3.97;;;0.80;;
77457;SDS011;66541;49.346;8.648;2023-02-03T02:04:37;3.83;;;0.80;;
77457;SDS011;66541;49.346;8.648;2023-02-03T02:07:07;4.68;;;0.75;;
77457;SDS011;66541;49.346;8.648;2023-02-03T02:09:33;6.00;;;1.25;;
77457;SDS011;66541;49.346;8.648;2023-02-03T02:11:58;7.55;;;1.42;;
77457;SDS011;66541;49.346;8.648;2023-02-03T02:14:24;4.43;;;0.82;;
77457;SDS011;66541;49.346;8.648;2023-02-03T02:16:55;4.55;;;0.93;;
77457;SDS011;66541;49.346;8.648;2023-02-03T02:22:25;6.82;;;0.90;;
77457;SDS011;66541;49.346;8.648;2023-02-03T02:28:30;4.53;;;0.80;;
77457;SDS011;66541;49.346;8.648;2023-02-03T02:33:57;5.38;;;1.20;;
77457;SDS011;66541;49.346;8.648;2023-02-03T02:36:31;4.90;;;0.80;;
77457;SDS011;66541;49.346;8.648;2023-02-03T02:39:44;6.97;;;1.10;;
77457;SDS011;66541;49.346;8.648;2023-02-03T02:42:01;4.95;;;0.80;;
77457;SDS011;66541;49.346;8.648;2023-02-03T02:44:48;5.05;;;0.98;;
77457;SDS011;66541;49.346;8.648;2023-02-03T02:47:19;5.05;;;0.75;;
77457;SDS011;66541;49.346;8.648;2023-02-03T02:49:47;3.72;;;0.65;;
77457;SDS011;66541;49.346;8.648;2023-02-03T02:52:17;6.70;;;0.95;;
77457;SDS011;66541;49.346;8.648;2023-02-03T02:54:45;4.03;;;0.60;;
77457;SDS011;66541;49.346;8.648;2023-02-03T02:57:13;4.28;;;0.77;;
77457;SDS011;66541;49.346;8.648;2023-02-03T02:59:40;4.75;;;0.80;;
77457;SDS011;66541;49.346;8.648;2023-02-03T03:02:05;5.13;;;0.77;;
77457;SDS011;66541;49.346;8.648;2023-02-03T03:04:31;3.83;;;0.57;;
77457;SDS011;66541;49.346;8.648;2023-02-03T03:06:58;4.07;;;0.77;;
77457;SDS011;66541;49.346;8.648;2023-02-03T03:09:26;3.60;;;0.68;;
77457;SDS011;66541;49.346;8.648;2023-02-03T03:12:01;3.88;;;0.80;;
77457;SDS011;66541;49.346;8.648;2023-02-03T03:14:42;3.33;;;0.52;;
77457;SDS011;66541;49.346;8.648;2023-02-03T03:17:11;3.83;;;0.63;;
77457;SDS011;66541;49.346;8.648;2023-02-03T03:19:41;6.47;;;1.02;;
77457;SDS011;66541;49.346;8.648;2023-02-03T03:22:12;5.63;;;0.90;;
77457;SDS011;66541;49.346;8.648;2023-02-03T03:24:44;3.63;;;0.70;;
77457;SDS011;66541;49.346;8.648;2023-02-03T03:27:12;5.00;;;0.65;;
77457;SDS011;66541;49.346;8.648;2023-02-03T03:29:45;4.97;;;0.80;;
77457;SDS011;66541;49.346;8.648;2023-02-03T03:32:14;4.85;;;0.90;;
77457;SDS011;66541;49.346;8.648;2023-02-03T03:34:39;3.75;;;0.80;;
77457;SDS011;66541;49.346;8.648;2023-02-03T03:37:14;4.65;;;0.80;;
77457;SDS011;66541;49.346;8.648;2023-02-03T03:39:53;6.10;;;1.38;;
77457;SDS011;66541;49.346;8.648;2023-02-03T03:42:37;4.43;;;0.57;;
77457;SDS011;66541;49.346;8.648;2023-02-03T03:47:48;5.65;;;1.08;;
77457;SDS011;66541;49.346;8.648;2023-02-03T03:50:22;4.35;;;1.00;;
77457;SDS011;66541;49.346;8.648;2023-02-03T03:52:51;3.85;;;0.60;;
77457;SDS011;66541;49.346;8.648;2023-02-03T03:55:17;4.85;;;0.80;;
77457;SDS011;66541;49.346;8.648;2023-02-03T03:57:50;4.55;;;0.68;;
77457;SDS011;66541;49.346;8.648;2023-02-03T04:00:19;4.07;;;0.93;;
77457;SDS011;66541;49.346;8.648;2023-02-03T04:02:45;3.53;;;0.70;;
77457;SDS011;66541;49.346;8.648;2023-02-03T04:05:15;6.00;;;1.10;;
77457;SDS011;66541;49.346;8.648;2023-02-03T04:07:41;4.53;;;0.70;;
77457;SDS011;66541;49.346;8.648;2023-02-03T04:10:30;5.95;;;1.42;;
77457;SDS011;66541;49.346;8.648;2023-02-03T04:12:58;7.38;;;1.33;;
77457;SDS011;66541;49.346;8.648;2023-02-03T04:15:24;4.72;;;0.90;;
77457;SDS011;66541;49.346;8.648;2023-02-03T04:17:49;5.35;;;1.10;;
77457;SDS011;66541;49.346;8.648;2023-02-03T04:20:14;5.90;;;0.90;;
77457;SDS011;66541;49.346;8.648;2023-02-03T04:22:40;5.53;;;1.05;;
77457;SDS011;66541;49.346;8.648;2023-02-03T04:25:06;4.63;;;0.98;;
77457;SDS011;66541;49.346;8.648;2023-02-03T04:27:31;5.45;;;2.05;;
77457;SDS011;66541;49.346;8.648;2023-02-03T04:29:56;5.50;;;1.02;;
77457;SDS011;66541;49.346;8.648;2023-02-03T04:32:22;5.53;;;1.35;;
77457;SDS011;66541;49.346;8.648;2023-02-03T04:34:47;4.38;;;0.90;;
77457;SDS011;66541;49.346;8.648;2023-02-03T04:37:12;5.70;;;1.20;;
77457;SDS011;66541;49.346;8.648;2023-02-03T04:39:38;5.75;;;1.40;;
77457;SDS011;66541;49.346;8.648;2023-02-03T04:42:03;5.32;;;1.02;;
77457;SDS011;66541;49.346;8.648;2023-02-03T04:44:28;6.88;;;1.73;;
77457;SDS011;66541;49.346;8.648;2023-02-03T04:46:54;5.97;;;1.15;;
77457;SDS011;66541;49.346;8.648;2023-02-03T04:49:19;5.45;;;1.20;;
77457;SDS011;66541;49.346;8.648;2023-02-03T04:51:44;4.95;;;1.40;;
77457;SDS011;66541;49.346;8.648;2023-02-03T04:54:12;5.55;;;1.20;;
77457;SDS011;66541;49.346;8.648;2023-02-03T04:56:37;7.32;;;1.33;;
77457;SDS011;66541;49.346;8.648;2023-02-03T04:59:03;4.72;;;1.30;;
77457;SDS011;66541;49.346;8.648;2023-02-03T05:01:28;4.80;;;1.23;;
77457;SDS011;66541;49.346;8.648;2023-02-03T05:03:53;4.60;;;1.05;;
77457;SDS011;66541;49.346;8.648;2023-02-03T05:06:22;6.35;;;1.10;;
77457;SDS011;66541;49.346;8.648;2023-02-03T05:08:49;5.40;;;0.90;;
77457;SDS011;66541;49.346;8.648;2023-02-03T05:11:15;7.18;;;1.38;;
77457;SDS011;66541;49.346;8.648;2023-02-03T05:13:40;5.88;;;1.35;;
77457;SDS011;66541;49.346;8.648;2023-02-03T05:16:05;6.00;;;1.30;;
77457;SDS011;66541;49.346;8.648;2023-02-03T05:18:31;5.53;;;1.20;;
77457;SDS011;66541;49.346;8.648;2023-02-03T05:20:56;8.02;;;1.35;;
77457;SDS011;66541;49.346;8.648;2023-02-03T05:23:21;7.75;;;1.15;;
77457;SDS011;66541;49.346;8.648;2023-02-03T05:26:02;8.32;;;1.35;;
77457;SDS011;66541;49.346;8.648;2023-02-03T05:28:27;4.20;;;0.88;;
77457;SDS011;66541;49.346;8.648;2023-02-03T05:30:53;6.80;;;1.17;;
77457;SDS011;66541;49.346;8.648;2023-02-03T05:33:18;7.03;;;1.30;;
77457;SDS011;66541;49.346;8.648;2023-02-03T05:35:43;6.15;;;1.10;;
77457;SDS011;66541;49.346;8.648;2023-02-03T05:38:09;5.22;;;1.48;;
77457;SDS011;66541;49.346;8.648;2023-02-03T05:40:34;6.13;;;1.00;;
77457;SDS011;66541;49.346;8.648;2023-02-03T05:43:18;5.95;;;1.25;;
77457;SDS011;66541;49.346;8.648;2023-02-03T05:45:43;6.78;;;1.50;;
77457;SDS011;66541;49.346;8.648;2023-02-03T05:48:08;6.68;;;1.73;;
77457;SDS011;66541;49.346;8.648;2023-02-03T05:50:34;5.60;;;1.33;;
77457;SDS011;66541;49.346;8.648;2023-02-03T05:53:00;7.00;;;1.60;;
77457;SDS011;66541;49.346;8.648;2023-02-03T05:55:28;5.30;;;1.15;;
77457;SDS011;66541;49.346;8.648;2023-02-03T05:57:54;6.00;;;1.23;;
77457;SDS011;66541;49.346;8.648;2023-02-03T06:00:20;5.18;;;1.05;;
77457;SDS011;66541;49.346;8.648;2023-02-03T06:02:50;8.55;;;1.17;;
77457;SDS011;66541;49.346;8.648;2023-02-03T06:05:16;6.50;;;1.30;;
77457;SDS011;66541;49.346;8.648;2023-02-03T06:07:41;6.90;;;1.27;;
77457;SDS011;66541;49.346;8.648;2023-02-03T06:10:07;5.32;;;1.20;;
77457;SDS011;66541;49.346;8.648;2023-02-03T06:12:32;5.57;;;1.23;;
77457;SDS011;66541;49.346;8.648;2023-02-03T06:14:58;5.55;;;1.30;;
77457;SDS011;66541;49.346;8.648;2023-02-03T06:17:23;5.60;;;1.40;;
77457;SDS011;66541;49.346;8.648;2023-02-03T06:19:48;5.80;;;1.88;;
77457;SDS011;66541;49.346;8.648;2023-02-03T06:22:13;7.30;;;1.38;;
77457;SDS011;66541;49.346;8.648;2023-02-03T06:24:39;6.35;;;1.55;;
77457;SDS011;66541;49.346;8.648;2023-02-03T06:27:04;6.63;;;1.50;;
77457;SDS011;66541;49.346;8.648;2023-02-03T06:29:29;6.45;;;1.45;;
77457;SDS011;66541;49.346;8.648;2023-02-03T06:31:55;5.80;;;1.48;;
77457;SDS011;66541;49.346;8.648;2023-02-03T06:34:20;5.13;;;1.38;;
77457;SDS011;66541;49.346;8.648;2023-02-03T06:36:45;5.93;;;1.65;;
77457;SDS011;66541;49.346;8.648;2023-02-03T06:39:12;6.00;;;1.65;;
77457;SDS011;66541;49.346;8.648;2023-02-03T06:41:37;12.77;;;1.60;;
77457;SDS011;66541;49.346;8.648;2023-02-03T06:44:03;6.80;;;1.45;;
77457;SDS011;66541;49.346;8.648;2023-02-03T06:46:28;7.05;;;1.50;;
77457;SDS011;66541;49.346;8.648;2023-02-03T06:48:53;6.55;;;1.60;;
77457;SDS011;66541;49.346;8.648;2023-02-03T06:51:19;7.13;;;1.77;;
77457;SDS011;66541;49.346;8.648;2023-02-03T06:53:44;6.38;;;1.25;;
77457;SDS011;66541;49.346;8.648;2023-02-03T06:56:09;7.28;;;1.33;;
77457;SDS011;66541;49.346;8.648;2023-02-03T06:58:35;6.38;;;1.50;;
77457;SDS011;66541;49.346;8.648;2023-02-03T07:01:00;7.68;;;1.80;;
77457;SDS011;66541;49.346;8.648;2023-02-03T07:03:25;6.45;;;2.00;;
77457;SDS011;66541;49.346;8.648;2023-02-03T07:05:51;7.00;;;1.58;;
77457;SDS011;66541;49.346;8.648;2023-02-03T07:08:16;11.15;;;2.47;;
77457;SDS011;66541;49.346;8.648;2023-02-03T07:10:41;6.95;;;1.90;;
77457;SDS011;66541;49.346;8.648;2023-02-03T07:13:06;7.28;;;1.83;;
77457;SDS011;66541;49.346;8.648;2023-02-03T07:15:32;6.38;;;1.63;;
77457;SDS011;66541;49.346;8.648;2023-02-03T07:17:57;7.72;;;1.33;;
77457;SDS011;66541;49.346;8.648;2023-02-03T07:20:23;4.75;;;1.25;;
77457;SDS011;66541;49.346;8.648;2023-02-03T07:22:52;6.63;;;1.88;;
77457;SDS011;66541;49.346;8.648;2023-02-03T07:25:21;8.13;;;1.52;;
77457;SDS011;66541;49.346;8.648;2023-02-03T07:27:46;5.75;;;1.38;;
77457;SDS011;66541;49.346;8.648;2023-02-03T07:30:12;6.50;;;1.20;;
77457;SDS011;66541;49.346;8.648;2023-02-03T07:32:37;5.35;;;1.33;;
77457;SDS011;66541;49.346;8.648;2023-02-03T07:35:03;7.25;;;1.15;;
77457;SDS011;66541;49.346;8.648;2023-02-03T07:37:28;6.43;;;1.40;;
77457;SDS011;66541;49.346;8.648;2023-02-03T07:39:53;7.45;;;1.23;;
77457;SDS011;66541;49.346;8.648;2023-02-03T07:42:19;4.20;;;0.90;;
77457;SDS011;66541;49.346;8.648;2023-02-03T07:44:44;5.68;;;1.20;;
77457;SDS011;66541;49.346;8.648;2023-02-03T07:47:09;7.40;;;1.52;;
77457;SDS011;66541;49.346;8.648;2023-02-03T07:49:35;6.32;;;1.30;;
77457;SDS011;66541;49.346;8.648;2023-02-03T07:52:00;5.43;;;0.90;;
77457;SDS011;66541;49.346;8.648;2023-02-03T07:54:25;6.40;;;1.00;;
77457;SDS011;66541;49.346;8.648;2023-02-03T07:56:51;5.70;;;1.00;;
77457;SDS011;66541;49.346;8.648;2023-02-03T07:59:16;3.65;;;0.80;;
77457;SDS011;66541;49.346;8.648;2023-02-03T08:01:41;4.93;;;1.38;;
77457;SDS011;66541;49.346;8.648;2023-02-03T08:04:06;7.57;;;1.13;;
77457;SDS011;66541;49.346;8.648;2023-02-03T08:06:32;5.45;;;1.10;;
77457;SDS011;66541;49.346;8.648;2023-02-03T08:08:58;4.65;;;0.82;;
77457;SDS011;66541;49.346;8.648;2023-02-03T08:11:23;4.63;;;1.30;;
77457;SDS011;66541;49.346;8.648;2023-02-03T08:13:48;6.93;;;0.93;;
77457;SDS011;66541;49.346;8.648;2023-02-03T08:16:14;5.72;;;1.02;;
77457;SDS011;66541;49.346;8.648;2023-02-03T08:18:39;6.18;;;0.93;;
77457;SDS011;66541;49.346;8.648;2023-02-03T08:21:04;9.50;;;1.38;;
77457;SDS011;66541;49.346;8.648;2023-02-03T08:23:30;8.05;;;1.00;;
77457;SDS011;66541;49.346;8.648;2023-02-03T08:25:55;5.10;;;0.88;;
77457;SDS011;66541;49.346;8.648;2023-02-03T08:28:20;4.38;;;1.02;;
77457;SDS011;66541;49.346;8.648;2023-02-03T08:30:46;5.03;;;1.10;;
77457;SDS011;66541;49.346;8.648;2023-02-03T08:33:11;6.00;;;0.98;;
77457;SDS011;66541;49.346;8.648;2023-02-03T08:35:36;3.65;;;0.93;;
77457;SDS011;66541;49.346;8.648;2023-02-03T08:38:03;3.13;;;0.60;;
77457;SDS011;66541;49.346;8.648;2023-02-03T08:40:28;5.22;;;0.90;;
77457;SDS011;66541;49.346;8.648;2023-02-03T08:42:53;4.78;;;1.00;;
77457;SDS011;66541;49.346;8.648;2023-02-03T08:45:19;5.53;;;1.15;;
77457;SDS011;66541;49.346;8.648;2023-02-03T08:47:44;4.22;;;1.00;;
77457;SDS011;66541;49.346;8.648;2023-02-03T08:50:09;4.18;;;0.70;;
77457;SDS011;66541;49.346;8.648;2023-02-03T08:52:35;5.53;;;1.20;;
77457;SDS011;66541;49.346;8.648;2023-02-03T08:55:01;12.57;;;1.52;;
77457;SDS011;66541;49.346;8.648;2023-02-03T08:57:30;5.90;;;0.85;;
77457;SDS011;66541;49.346;8.648;2023-02-03T08:59:56;5.28;;;1.10;;
77457;SDS011;66541;49.346;8.648;2023-02-03T09:02:21;9.80;;;1.48;;
77457;SDS011;66541;49.346;8.648;2023-02-03T09:04:47;5.93;;;1.00;;
77457;SDS011;66541;49.346;8.648;2023-02-03T09:07:13;5.35;;;0.98;;
77457;SDS011;66541;49.346;8.648;2023-02-03T09:09:39;5.10;;;0.90;;
77457;SDS011;66541;49.346;8.648;2023-02-03T09:12:05;4.38;;;0.88;;
77457;SDS011;66541;49.346;8.648;2023-02-03T09:14:31;5.70;;;1.08;;
77457;SDS011;66541;49.346;8.648;2023-02-03T09:16:57;5.43;;;1.23;;
77457;SDS011;66541;49.346;8.648;2023-02-03T09:19:23;6.40;;;0.90;;
77457;SDS011;66541;49.346;8.648;2023-02-03T09:21:48;7.25;;;1.00;;
77457;SDS011;66541;49.346;8.648;2023-02-03T09:24:15;5.25;;;0.73;;
77457;SDS011;66541;49.346;8.648;2023-02-03T09:26:41;4.25;;;0.77;;
77457;SDS011;66541;49.346;8.648;2023-02-03T09:29:06;4.53;;;0.75;;
77457;SDS011;66541;49.346;8.648;2023-02-03T09:31:31;4.50;;;0.90;;
77457;SDS011;66541;49.346;8.648;2023-02-03T09:33:57;7.72;;;0.88;;
77457;SDS011;66541;49.346;8.648;2023-02-03T09:36:23;5.63;;;1.00;;
77457;SDS011;66541;49.346;8.648;2023-02-03T09:38:48;3.45;;;0.65;;
77457;SDS011;66541;49.346;8.648;2023-02-03T09:47:04;4.55;;;0.82;;
77457;SDS011;66541;49.346;8.648;2023-02-03T09:49:42;2.95;;;0.57;;
77457;SDS011;66541;49.346;8.648;2023-02-03T09:52:24;4.03;;;0.70;;
77457;SDS011;66541;49.346;8.648;2023-02-03T09:55:10;3.58;;;0.50;;
77457;SDS011;66541;49.346;8.648;2023-02-03T09:58:35;4.20;;;0.90;;
77457;SDS011;66541;49.346;8.648;2023-02-03T10:00:49;4.72;;;0.93;;
77457;SDS011;66541;49.346;8.648;2023-02-03T10:11:21;4.40;;;0.85;;
77457;SDS011;66541;49.346;8.648;2023-02-03T10:19:34;3.28;;;0.93;;
77457;SDS011;66541;49.346;8.648;2023-02-03T10:22:18;3.90;;;0.80;;
77457;SDS011;66541;49.346;8.648;2023-02-03T10:24:47;3.10;;;0.70;;
77457;SDS011;66541;49.346;8.648;2023-02-03T10:27:16;2.05;;;0.40;;
77457;SDS011;66541;49.346;8.648;2023-02-03T10:29:43;3.63;;;0.73;;
77457;SDS011;66541;49.346;8.648;2023-02-03T10:32:09;3.88;;;0.57;;
77457;SDS011;66541;49.346;8.648;2023-02-03T10:34:38;5.53;;;0.98;;
77457;SDS011;66541;49.346;8.648;2023-02-03T10:37:11;4.82;;;0.70;;
77457;SDS011;66541;49.346;8.648;2023-02-03T10:39:44;3.25;;;0.60;;
77457;SDS011;66541;49.346;8.648;2023-02-03T10:42:11;4.28;;;0.70;;
77457;SDS011;66541;49.346;8.648;2023-02-03T10:44:38;3.55;;;0.65;;
77457;SDS011;66541;49.346;8.648;2023-02-03T10:49:50;5.30;;;0.63;;
77457;SDS011;66541;49.346;8.648;2023-02-03T10:52:30;2.63;;;0.50;;
77457;SDS011;66541;49.346;8.648;2023-02-03T10:54:57;2.53;;;0.70;;
77457;SDS011;66541;49.346;8.648;2023-02-03T10:57:23;3.33;;;0.65;;
77457;SDS011;66541;49.346;8.648;2023-02-03T10:59:49;4.95;;;1.20;;
77457;SDS011;66541;49.346;8.648;2023-02-03T11:02:22;4.80;;;0.65;;
77457;SDS011;66541;49.346;8.648;2023-02-03T11:05:06;2.65;;;0.47;;
77457;SDS011;66541;49.346;8.648;2023-02-03T11:07:41;2.78;;;0.47;;
77457;SDS011;66541;49.346;8.648;2023-02-03T11:10:24;3.85;;;0.43;;
77457;SDS011;66541;49.346;8.648;2023-02-03T11:13:09;3.55;;;0.60;;
77457;SDS011;66541;49.346;8.648;2023-02-03T11:15:34;5.18;;;0.70;;
77457;SDS011;66541;49.346;8.648;2023-02-03T11:18:00;4.72;;;0.88;;
77457;SDS011;66541;49.346;8.648;2023-02-03T11:20:25;4.63;;;1.00;;
77457;SDS011;66541;49.346;8.648;2023-02-03T11:22:52;5.13;;;0.65;;
77457;SDS011;66541;49.346;8.648;2023-02-03T11:25:25;5.63;;;0.93;;
77457;SDS011;66541;49.346;8.648;2023-02-03T11:27:54;3.72;;;0.90;;
77457;SDS011;66541;49.346;8.648;2023-02-03T11:30:23;3.45;;;0.50;;
77457;SDS011;66541;49.346;8.648;2023-02-03T11:32:51;4.30;;;0.70;;
77457;SDS011;66541;49.346;8.648;2023-02-03T11:35:18;2.42;;;0.60;;
77457;SDS011;66541;49.346;8.648;2023-02-03T11:37:46;4.25;;;0.50;;
77457;SDS011;66541;49.346;8.648;2023-02-03T11:40:31;5.43;;;0.70;;
77457;SDS011;66541;49.346;8.648;2023-02-03T11:43:15;2.55;;;0.57;;
77457;SDS011;66541;49.346;8.648;2023-02-03T11:45:42;3.47;;;0.60;;
77457;SDS011;66541;49.346;8.648;2023-02-03T11:56:24;3.33;;;0.65;;
77457;SDS011;66541;49.346;8.648;2023-02-03T11:58:57;2.38;;;0.40;;
77457;SDS011;66541;49.346;8.648;2023-02-03T12:07:14;2.05;;;0.15;;
77457;SDS011;66541;49.346;8.648;2023-02-03T12:23:27;1.00;;;0.20;;
77457;SDS011;66541;49.346;8.648;2023-02-03T12:26:06;0.95;;;0.10;;
77457;SDS011;66541;49.346;8.648;2023-02-03T12:31:14;0.95;;;0.10;;
77457;SDS011;66541;49.346;8.648;2023-02-03T12:33:45;0.90;;;0.10;;
77457;SDS011;66541;49.346;8.648;2023-02-03T12:36:15;1.73;;;0.10;;
77457;SDS011;66541;49.346;8.648;2023-02-03T12:38:45;0.90;;;0.10;;
77457;SDS011;66541;49.346;8.648;2023-02-03T12:41:24;2.67;;;0.32;;
77457;SDS011;66541;49.346;8.648;2023-02-03T12:43:52;2.83;;;0.20;;
77457;SDS011;66541;49.346;8.648;2023-02-03T12:49:15;0.75;;;0.10;;
77457;SDS011;66541;49.346;8.648;2023-02-03T12:54:36;0.85;;;0.10;;
77457;SDS011;66541;49.346;8.648;2023-02-03T12:57:26;2.78;;;0.22;;
77457;SDS011;66541;49.346;8.648;2023-02-03T13:00:00;1.20;;;0.10;;
77457;SDS011;66541;49.346;8.648;2023-02-03T13:02:29;2.33;;;0.10;;
77457;SDS011;66541;49.346;8.648;2023-02-03T13:05:44;2.50;;;0.30;;
77457;SDS011;66541;49.346;8.648;2023-02-03T13:07:52;0.95;;;0.10;;
77457;SDS011;66541;49.346;8.648;2023-02-03T13:13:01;1.38;;;0.20;;
77457;SDS011;66541;49.346;8.648;2023-02-03T13:15:33;0.73;;;0.10;;
77457;SDS011;66541;49.346;8.648;2023-02-03T13:20:36;2.03;;;0.10;;
77457;SDS011;66541;49.346;8.648;2023-02-03T13:23:05;1.08;;;0.10;;
77457;SDS011;66541;49.346;8.648;2023-02-03T13:25:43;1.00;;;0.10;;
77457;SDS011;66541;49.346;8.648;2023-02-03T13:36:25;1.70;;;0.10;;
77457;SDS011;66541;49.346;8.648;2023-02-03T13:41:36;0.80;;;0.10;;
77457;SDS011;66541;49.346;8.648;2023-02-03T13:44:33;0.40;;;0.10;;
77457;SDS011;66541;49.346;8.648;2023-02-03T13:47:01;1.33;;;0.10;;
77457;SDS011;66541;49.346;8.648;2023-02-03T13:49:28;0.60;;;0.00;;
77457;SDS011;66541;49.346;8.648;2023-02-03T13:51:55;0.75;;;0.10;;
77457;SDS011;66541;49.346;8.648;2023-02-03T13:54:24;0.30;;;0.00;;
77457;SDS011;66541;49.346;8.648;2023-02-03T13:56:52;0.50;;;0.00;;
77457;SDS011;66541;49.346;8.648;2023-02-03T14:12:36;0.95;;;0.10;;
77457;SDS011;66541;49.346;8.648;2023-02-03T14:17:56;0.25;;;0.00;;
77457;SDS011;66541;49.346;8.648;2023-02-03T14:22:52;0.40;;;0.10;;
77457;SDS011;66541;49.346;8.648;2023-02-03T14:25:20;0.98;;;0.10;;
77457;SDS011;66541;49.346;8.648;2023-02-03T14:27:46;0.57;;;0.00;;
77457;SDS011;66541;49.346;8.648;2023-02-03T14:30:13;0.63;;;0.05;;
77457;SDS011;66541;49.346;8.648;2023-02-03T14:32:53;0.40;;;0.00;;
77457;SDS011;66541;49.346;8.648;2023-02-03T14:35:41;0.73;;;0.00;;
77457;SDS011;66541;49.346;8.648;2023-02-03T14:38:07;1.17;;;0.10;;
77457;SDS011;66541;49.346;8.648;2023-02-03T14:40:47;0.77;;;0.00;;
77457;SDS011;66541;49.346;8.648;2023-02-03T14:52:00;0.75;;;0.10;;
77457;SDS011;66541;49.346;8.648;2023-02-03T14:54:52;0.73;;;0.10;;
77457;SDS011;66541;49.346;8.648;2023-02-03T15:05:35;0.73;;;0.10;;
77457;SDS011;66541;49.346;8.648;2023-02-03T15:08:28;0.95;;;0.08;;
77457;SDS011;66541;49.346;8.648;2023-02-03T15:10:57;1.00;;;0.00;;
77457;SDS011;66541;49.346;8.648;2023-02-03T15:13:23;1.35;;;0.20;;
77457;SDS011;66541;49.346;8.648;2023-02-03T15:15:51;0.55;;;0.03;;
77457;SDS011;66541;49.346;8.648;2023-02-03T15:18:30;1.00;;;0.15;;
77457;SDS011;66541;49.346;8.648;2023-02-03T15:21:00;0.88;;;0.03;;
77457;SDS011;66541;49.346;8.648;2023-02-03T15:23:26;1.00;;;0.05;;
77457;SDS011;66541;49.346;8.648;2023-02-03T15:28:19;0.95;;;0.05;;
77457;SDS011;66541;49.346;8.648;2023-02-03T15:30:46;1.17;;;0.20;;
77457;SDS011;66541;49.346;8.648;2023-02-03T15:33:16;1.52;;;0.20;;
77457;SDS011;66541;49.346;8.648;2023-02-03T15:35:45;1.48;;;0.17;;
77457;SDS011;66541;49.346;8.648;2023-02-03T15:38:14;1.70;;;0.10;;
77457;SDS011;66541;49.346;8.648;2023-02-03T15:40:52;1.23;;;0.00;;
77457;SDS011;66541;49.346;8.648;2023-02-03T15:43:31;0.63;;;0.10;;
77457;SDS011;66541;49.346;8.648;2023-02-03T15:46:03;1.88;;;0.10;;
77457;SDS011;66541;49.346;8.648;2023-02-03T15:53:56;1.65;;;0.20;;
77457;SDS011;66541;49.346;8.648;2023-02-03T15:59:01;1.83;;;0.20;;
77457;SDS011;66541;49.346;8.648;2023-02-03T16:01:27;0.98;;;0.13;;
77457;SDS011;66541;49.346;8.648;2023-02-03T16:03:54;1.13;;;0.22;;
77457;SDS011;66541;49.346;8.648;2023-02-03T16:06:22;1.48;;;0.20;;
77457;SDS011;66541;49.346;8.648;2023-02-03T16:08:51;0.80;;;0.10;;
77457;SDS011;66541;49.346;8.648;2023-02-03T16:13:51;4.07;;;0.38;;
77457;SDS011;66541;49.346;8.648;2023-02-03T16:16:24;1.65;;;0.20;;
77457;SDS011;66541;49.346;8.648;2023-02-03T16:19:01;1.38;;;0.20;;
77457;SDS011;66541;49.346;8.648;2023-02-03T16:23:56;1.10;;;0.20;;
77457;SDS011;66541;49.346;8.648;2023-02-03T16:26:23;1.77;;;0.22;;
77457;SDS011;66541;49.346;8.648;2023-02-03T16:31:46;2.35;;;0.20;;
77457;SDS011;66541;49.346;8.648;2023-02-03T16:34:30;1.05;;;0.20;;
77457;SDS011;66541;49.346;8.648;2023-02-03T16:37:25;1.80;;;0.30;;
77457;SDS011;66541;49.346;8.648;2023-02-03T16:40:11;2.28;;;0.30;;
77457;SDS011;66541;49.346;8.648;2023-02-03T16:42:59;1.77;;;0.30;;
77457;SDS011;66541;49.346;8.648;2023-02-03T16:45:44;1.58;;;0.35;;
77457;SDS011;66541;49.346;8.648;2023-02-03T16:48:28;2.03;;;0.40;;
77457;SDS011;66541;49.346;8.648;2023-02-03T16:51:13;1.23;;;0.28;;
77457;SDS011;66541;49.346;8.648;2023-02-03T16:53:40;1.17;;;0.17;;
77457;SDS011;66541;49.346;8.648;2023-02-03T16:56:06;2.17;;;0.25;;
77457;SDS011;66541;49.346;8.648;2023-02-03T16:58:31;2.10;;;0.30;;
77457;SDS011;66541;49.346;8.648;2023-02-03T17:00:58;1.77;;;0.20;;
77457;SDS011;66541;49.346;8.648;2023-02-03T17:03:25;1.30;;;0.10;;
77457;SDS011;66541;49.346;8.648;2023-02-03T17:05:51;1.40;;;0.30;;
77457;SDS011;66541;49.346;8.648;2023-02-03T17:08:18;1.92;;;0.47;;
77457;SDS011;66541;49.346;8.648;2023-02-03T17:10:45;1.95;;;0.30;;
77457;SDS011;66541;49.346;8.648;2023-02-03T17:13:12;2.13;;;0.30;;
77457;SDS011;66541;49.346;8.648;2023-02-03T17:15:42;3.05;;;0.60;;
77457;SDS011;66541;49.346;8.648;2023-02-03T17:20:34;1.25;;;0.20;;
77457;SDS011;66541;49.346;8.648;2023-02-03T17:23:00;1.65;;;0.30;;